Time;durP1;ratioP1;P1;durP2;ratioP2;P2;SDS_P1;SDS_P2;PMS_P1;PMS_P2;Temp;Humidity;BMP_temperature;BMP_pressure;BME280_temperature;BME280_humidity;BME280_pressure;Samples;Min_cycle;Max_cycle;Signal;HPM_P1;HPM_P2
2021/08/27 00:00:17;;;;;;;0.80;0.10;;;14.30;81.20;;;;;;5013183;28;20110;-80
2021/08/27 00:02:44;;;;;;;1.60;0.10;;;14.30;81.20;;;;;;5008082;28;20412;-79
2021/08/27 00:05:11;;;;;;;1.75;0.10;;;14.30;81.20;;;;;;5013612;28;20060;-79
2021/08/27 00:07:39;;;;;;;0.75;0.00;;;14.30;81.20;;;;;;4997638;28;20076;-79
2021/08/27 00:10:06;;;;;;;2.00;0.10;;;14.20;81.20;;;;;;5022771;28;20048;-80
2021/08/27 00:12:35;;;;;;;0.57;0.10;;;14.30;81.30;;;;;;5019398;28;20037;-80
2021/08/27 00:15:08;;;;;;;0.30;0.00;;;14.30;81.30;;;;;;5019891;28;20049;-79
2021/08/27 00:17:36;;;;;;;1.90;0.20;;;14.40;81.20;;;;;;5020168;28;20382;-80
2021/08/27 00:20:05;;;;;;;1.33;0.20;;;14.40;81.10;;;;;;5003669;28;20037;-80
2021/08/27 00:22:33;;;;;;;0.50;0.10;;;14.50;81.00;;;;;;5005822;28;20036;-79
2021/08/27 00:25:00;;;;;;;0.65;0.10;;;14.50;81.10;;;;;;5019863;28;20037;-80
2021/08/27 00:27:27;;;;;;;0.32;0.03;;;14.50;81.10;;;;;;5006877;28;20520;-80
2021/08/27 00:29:54;;;;;;;2.17;0.10;;;14.40;81.10;;;;;;5036851;28;20063;-79
2021/08/27 00:32:21;;;;;;;1.58;0.10;;;14.40;81.20;;;;;;5018692;28;20118;-80
2021/08/27 00:34:48;;;;;;;0.40;0.05;;;14.40;81.40;;;;;;5023028;28;20041;-80
2021/08/27 00:37:15;;;;;;;2.10;0.10;;;14.30;81.40;;;;;;4999608;28;20053;-80
2021/08/27 00:39:42;;;;;;;0.52;0.00;;;14.20;81.50;;;;;;5024553;28;20532;-80
2021/08/27 00:42:09;;;;;;;1.60;0.47;;;14.30;81.60;;;;;;5023013;28;20090;-80
2021/08/27 00:44:36;;;;;;;1.50;0.15;;;14.20;81.60;;;;;;5028753;28;20049;-80
2021/08/27 00:47:04;;;;;;;2.08;0.20;;;14.20;81.70;;;;;;5009636;28;20095;-80
2021/08/27 00:49:32;;;;;;;1.33;0.20;;;14.20;81.80;;;;;;5036388;28;20425;-80
2021/08/27 00:51:59;;;;;;;1.00;0.32;;;14.20;81.90;;;;;;5017741;28;20038;-80
2021/08/27 00:54:26;;;;;;;0.22;0.10;;;14.10;81.90;;;;;;5000591;28;20048;-80
2021/08/27 00:56:53;;;;;;;1.38;0.20;;;14.10;82.00;;;;;;5021811;28;20507;-80
2021/08/27 00:59:20;;;;;;;0.55;0.32;;;14.10;82.00;;;;;;5022319;28;20124;-80
2021/08/27 01:01:48;;;;;;;0.63;0.10;;;14.10;82.10;;;;;;5014380;28;20063;-80
2021/08/27 01:04:15;;;;;;;0.52;0.20;;;14.10;82.10;;;;;;4999886;28;20049;-87
2021/08/27 01:07:01;;;;;;;3.00;0.10;;;14.10;82.10;;;;;;5015795;28;20064;-86
2021/08/27 01:09:48;;;;;;;0.88;0.10;;;14.10;82.10;;;;;;5031207;28;20072;-87
2021/08/27 01:12:32;;;;;;;0.38;0.10;;;14.10;82.10;;;;;;5021599;28;20408;-86
2021/08/27 01:15:14;;;;;;;0.70;0.03;;;14.10;82.20;;;;;;5047237;28;20045;-85
2021/08/27 01:17:49;;;;;;;0.20;0.00;;;14.00;82.30;;;;;;5030796;28;20059;-86
2021/08/27 01:20:38;;;;;;;1.80;0.10;;;14.00;82.40;;;;;;5052175;28;20291;-86
2021/08/27 01:23:37;;;;;;;0.70;0.10;;;14.00;82.50;;;;;;5028470;28;20036;-86
2021/08/27 01:26:05;;;;;;;1.05;0.10;;;13.90;82.40;;;;;;5021419;28;20072;-86
2021/08/27 01:28:39;;;;;;;0.47;0.10;;;13.90;82.60;;;;;;5036074;28;20095;-86
2021/08/27 01:31:15;;;;;;;1.25;0.10;;;13.90;82.70;;;;;;5040635;28;20060;-86
2021/08/27 01:34:24;;;;;;;1.13;0.10;;;13.80;82.70;;;;;;5041339;28;20045;-86
2021/08/27 01:36:52;;;;;;;0.08;0.00;;;13.80;82.70;;;;;;5036856;28;20060;-87
2021/08/27 01:39:21;;;;;;;1.25;0.10;;;13.80;82.90;;;;;;5012674;28;20072;-86
2021/08/27 01:41:52;;;;;;;1.00;0.13;;;13.80;83.00;;;;;;5017272;28;20044;-87
2021/08/27 01:44:21;;;;;;;3.22;0.20;;;13.80;83.00;;;;;;5042158;28;20037;-85
2021/08/27 01:46:52;;;;;;;1.10;0.03;;;13.70;83.00;;;;;;5034657;28;20515;-86
2021/08/27 01:49:20;;;;;;;2.28;0.22;;;13.70;83.00;;;;;;5031083;28;20041;-86
2021/08/27 01:51:48;;;;;;;0.75;0.20;;;13.70;83.20;;;;;;5033715;28;20086;-86
2021/08/27 01:54:16;;;;;;;2.15;0.10;;;13.70;83.20;;;;;;5008762;28;20059;-86
2021/08/27 01:56:43;;;;;;;3.78;0.25;;;13.70;83.20;;;;;;5018801;28;20071;-86
2021/08/27 01:59:12;;;;;;;0.77;0.30;;;13.70;83.20;;;;;;5023799;28;20481;-86
2021/08/27 02:01:40;;;;;;;1.33;0.50;;;13.70;83.30;;;;;;5002867;28;20053;-86
2021/08/27 02:04:14;;;;;;;0.43;0.10;;;13.70;83.30;;;;;;5028220;28;20497;-86
2021/08/27 02:06:42;;;;;;;1.27;0.40;;;13.70;83.30;;;;;;5031202;28;20029;-86
2021/08/27 02:09:11;;;;;;;1.55;0.10;;;13.70;83.30;;;;;;5028350;28;20064;-86
2021/08/27 02:11:39;;;;;;;2.20;0.10;;;13.70;83.30;;;;;;5031788;28;20041;-86
2021/08/27 02:14:07;;;;;;;2.40;0.40;;;13.70;83.40;;;;;;5019622;28;20041;-86
2021/08/27 02:16:35;;;;;;;0.90;0.10;;;13.70;83.40;;;;;;5016548;28;20045;-86
2021/08/27 02:19:03;;;;;;;1.90;0.10;;;13.70;83.40;;;;;;5025531;28;20095;-86
2021/08/27 02:21:34;;;;;;;0.77;0.20;;;13.70;83.40;;;;;;5011846;28;20041;-86
2021/08/27 02:24:05;;;;;;;3.08;0.13;;;13.70;83.40;;;;;;5019213;28;20065;-85
2021/08/27 02:26:36;;;;;;;2.58;0.35;;;13.70;83.50;;;;;;5030938;28;20045;-86
2021/08/27 02:29:04;;;;;;;1.20;0.28;;;13.70;83.50;;;;;;5020313;28;20052;-86
2021/08/27 02:31:32;;;;;;;2.00;0.20;;;13.70;83.40;;;;;;5048789;28;20068;-86
2021/08/27 02:34:00;;;;;;;1.35;0.17;;;13.80;83.40;;;;;;5021790;28;20040;-86
2021/08/27 02:36:28;;;;;;;2.58;0.20;;;13.90;83.40;;;;;;5025021;28;20060;-86
2021/08/27 02:39:01;;;;;;;0.95;0.10;;;13.90;83.30;;;;;;5014641;28;20067;-85
2021/08/27 02:41:29;;;;;;;3.85;0.20;;;13.90;83.20;;;;;;5025083;28;20142;-86
2021/08/27 02:43:56;;;;;;;1.27;0.30;;;14.00;83.20;;;;;;5011791;28;20509;-86
2021/08/27 02:46:23;;;;;;;0.20;0.10;;;14.00;83.20;;;;;;5023749;28;20041;-86
2021/08/27 02:48:50;;;;;;;0.85;0.20;;;13.90;83.10;;;;;;5008030;28;20044;-86
2021/08/27 02:51:22;;;;;;;1.60;0.10;;;13.90;83.10;;;;;;5016700;28;20883;-86
2021/08/27 02:53:54;;;;;;;1.25;0.10;;;13.90;83.20;;;;;;5022388;28;20061;-86
2021/08/27 02:56:33;;;;;;;0.47;0.10;;;13.90;83.30;;;;;;5001847;28;20049;-86
2021/08/27 02:59:02;;;;;;;0.88;0.40;;;13.90;83.30;;;;;;5009277;28;20550;-86
2021/08/27 03:01:37;;;;;;;1.42;0.15;;;13.80;83.40;;;;;;5002602;28;20080;-87
2021/08/27 03:04:32;;;;;;;2.10;0.15;;;13.80;83.50;;;;;;5019000;28;20049;-86
2021/08/27 03:07:06;;;;;;;1.30;0.13;;;13.80;83.60;;;;;;5031716;28;20510;-86
2021/08/27 03:09:54;;;;;;;1.05;0.22;;;13.80;83.70;;;;;;5015924;28;20817;-86
2021/08/27 03:12:36;;;;;;;2.15;0.50;;;13.80;83.60;;;;;;5024394;28;20045;-86
2021/08/27 03:15:05;;;;;;;1.38;0.10;;;13.90;83.60;;;;;;5001863;28;20043;-86
2021/08/27 03:17:37;;;;;;;0.75;0.10;;;13.90;83.50;;;;;;5003680;28;20052;-86
2021/08/27 03:20:17;;;;;;;2.30;0.30;;;13.90;83.40;;;;;;5008578;28;20065;-87
2021/08/27 03:23:07;;;;;;;0.40;0.10;;;14.00;83.40;;;;;;5025664;28;20053;-87
2021/08/27 03:25:44;;;;;;;0.73;0.10;;;14.00;84.00;;;;;;5018802;28;20054;-86
2021/08/27 03:28:17;;;;;;;0.43;0.10;;;14.10;83.30;;;;;;5028251;28;20053;-86
2021/08/27 03:30:46;;;;;;;;;;;14.10;83.30;;;;;;5002099;28;20049;-87
2021/08/27 03:33:14;;;;;;;2.05;0.35;;;14.10;83.30;;;;;;5017926;28;19921;-86
2021/08/27 03:35:42;;;;;;;1.55;0.10;;;14.00;83.40;;;;;;4998647;28;20038;-86
2021/08/27 03:38:42;;;;;;;0.55;0.10;;;14.00;83.30;;;;;;4996936;28;20053;-87
2021/08/27 03:41:30;;;;;;;0.40;0.10;;;14.10;83.30;;;;;;4998413;28;20501;-87
2021/08/27 03:43:59;;;;;;;1.42;0.10;;;14.10;83.20;;;;;;5018566;28;20056;-87
2021/08/27 03:46:26;;;;;;;0.75;0.10;;;14.20;83.20;;;;;;5016085;28;20227;-81
2021/08/27 03:48:54;;;;;;;1.17;0.22;;;14.20;83.20;;;;;;5031625;28;20460;-80
2021/08/27 03:51:22;;;;;;;1.98;0.10;;;14.20;83.10;;;;;;4996745;28;20107;-80
2021/08/27 03:54:05;;;;;;;0.40;0.03;;;14.20;83.10;;;;;;5011245;28;20413;-80
2021/08/27 03:56:33;;;;;;;1.05;0.10;;;14.20;83.00;;;;;;4997358;28;20045;-81
2021/08/27 03:59:01;;;;;;;1.42;0.10;;;14.30;83.10;;;;;;5018044;28;20060;-80
2021/08/27 04:01:29;;;;;;;2.00;0.10;;;14.30;83.10;;;;;;5001950;28;20060;-81
2021/08/27 04:03:56;;;;;;;0.50;0.10;;;14.30;83.00;;;;;;5020767;28;20057;-81
2021/08/27 04:06:23;;;;;;;1.65;0.10;;;14.30;83.00;;;;;;5023432;28;20103;-80
2021/08/27 04:08:50;;;;;;;0.82;0.10;;;14.30;83.00;;;;;;5013641;28;20049;-81
2021/08/27 04:11:18;;;;;;;2.03;0.10;;;14.20;83.00;;;;;;5000033;28;20048;-80
2021/08/27 04:13:45;;;;;;;0.32;0.10;;;14.20;83.20;;;;;;5035260;28;20123;-81
2021/08/27 04:16:13;;;;;;;0.68;0.10;;;14.10;83.40;;;;;;5010283;28;20123;-80
2021/08/27 04:18:40;;;;;;;0.70;0.00;;;14.00;83.50;;;;;;5031227;28;20037;-81
2021/08/27 04:21:07;;;;;;;0.88;0.08;;;14.00;83.70;;;;;;5020674;28;20065;-80
2021/08/27 04:23:34;;;;;;;0.40;0.05;;;13.90;83.80;;;;;;5036095;28;20469;-80
2021/08/27 04:26:04;;;;;;;1.27;0.08;;;13.90;84.00;;;;;;5026209;28;20127;-80
2021/08/27 04:28:31;;;;;;;0.38;0.10;;;13.90;84.00;;;;;;5050899;28;20037;-80
2021/08/27 04:30:59;;;;;;;0.88;0.20;;;13.80;84.00;;;;;;5038277;28;20041;-80
2021/08/27 04:33:26;;;;;;;0.45;0.10;;;13.80;84.10;;;;;;5026875;28;20048;-80
2021/08/27 04:35:57;;;;;;;1.38;0.10;;;13.80;84.10;;;;;;5018253;28;20049;-80
2021/08/27 04:38:25;;;;;;;0.52;0.10;;;13.80;84.20;;;;;;5004213;28;20092;-81
2021/08/27 04:40:52;;;;;;;1.10;0.10;;;13.80;84.40;;;;;;5003721;28;20048;-80
2021/08/27 04:43:19;;;;;;;1.55;0.20;;;13.80;84.30;;;;;;5011492;28;20065;-80
2021/08/27 04:45:46;;;;;;;1.40;0.10;;;13.70;84.30;;;;;;4990665;28;20037;-80
2021/08/27 04:48:13;;;;;;;0.40;0.10;;;13.80;84.40;;;;;;5009725;28;20440;-80
2021/08/27 04:50:40;;;;;;;2.05;0.43;;;13.80;84.40;;;;;;5018404;28;20065;-81
2021/08/27 04:53:07;;;;;;;0.68;0.10;;;13.80;84.50;;;;;;5007751;28;20044;-80
2021/08/27 04:55:34;;;;;;;2.47;0.40;;;13.80;84.40;;;;;;5048700;28;20048;-81
2021/08/27 04:58:01;;;;;;;1.30;0.20;;;13.80;84.40;;;;;;5005327;28;20072;-80
2021/08/27 05:00:29;;;;;;;0.82;0.10;;;13.80;84.30;;;;;;5012672;28;20475;-81
2021/08/27 05:02:56;;;;;;;1.33;0.10;;;13.90;84.40;;;;;;4990000;28;20048;-81
2021/08/27 05:05:24;;;;;;;0.75;0.05;;;13.90;84.40;;;;;;5019095;28;20140;-81
2021/08/27 05:07:51;;;;;;;0.35;0.10;;;13.90;84.40;;;;;;5038938;28;20040;-81
2021/08/27 05:10:18;;;;;;;0.98;0.17;;;13.90;84.40;;;;;;5011803;28;20045;-81
2021/08/27 05:12:45;;;;;;;0.57;0.10;;;13.90;84.40;;;;;;5020350;28;20052;-80
2021/08/27 05:15:12;;;;;;;3.17;0.20;;;14.00;84.40;;;;;;5018409;28;20061;-81
2021/08/27 05:17:39;;;;;;;1.40;0.13;;;14.00;84.30;;;;;;5000488;28;20088;-80
2021/08/27 05:20:07;;;;;;;0.98;0.20;;;14.10;84.30;;;;;;5046644;28;20049;-83
2021/08/27 05:22:34;;;;;;;1.48;0.10;;;14.10;84.30;;;;;;5018846;28;20049;-82
2021/08/27 05:25:01;;;;;;;2.97;0.15;;;14.20;84.20;;;;;;5018233;28;20044;-81
2021/08/27 05:27:28;;;;;;;1.10;0.10;;;14.30;84.10;;;;;;5030519;28;20098;-81
2021/08/27 05:30:02;;;;;;;0.73;0.13;;;14.30;84.00;;;;;;5000892;28;20069;-81
2021/08/27 05:32:32;;;;;;;1.85;0.20;;;14.40;84.00;;;;;;5046061;28;20049;-82
2021/08/27 05:34:59;;;;;;;0.90;0.10;;;14.40;83.90;;;;;;5004181;28;20033;-81
2021/08/27 05:37:26;;;;;;;1.17;0.10;;;14.40;84.00;;;;;;5032518;28;20087;-81
2021/08/27 05:39:53;;;;;;;1.60;0.05;;;14.40;84.00;;;;;;5018378;28;20079;-81
2021/08/27 05:42:20;;;;;;;2.15;0.10;;;14.40;84.00;;;;;;5023161;28;20051;-81
2021/08/27 05:44:47;;;;;;;0.85;0.00;;;14.40;84.00;;;;;;5027412;28;20049;-80
2021/08/27 05:47:18;;;;;;;0.77;0.17;;;14.40;84.00;;;;;;5020967;28;20499;-82
2021/08/27 05:49:45;;;;;;;0.85;0.10;;;14.50;84.00;;;;;;4998848;28;20133;-80
2021/08/27 05:52:12;;;;;;;0.88;0.10;;;14.60;83.90;;;;;;4997152;28;20037;-84
2021/08/27 05:54:39;;;;;;;1.60;0.20;;;14.60;83.80;;;;;;5020412;28;20071;-83
2021/08/27 05:57:06;;;;;;;1.02;0.20;;;14.70;83.70;;;;;;5031467;28;20048;-82
2021/08/27 05:59:33;;;;;;;0.55;0.13;;;14.80;83.50;;;;;;5002536;28;20076;-83
2021/08/27 06:02:00;;;;;;;0.75;0.13;;;14.90;83.50;;;;;;5018557;28;20485;-83
2021/08/27 06:04:27;;;;;;;0.95;0.10;;;15.00;83.40;;;;;;5017917;28;20055;-83
2021/08/27 06:06:56;;;;;;;0.73;0.10;;;15.00;83.40;;;;;;5023513;28;20041;-84
2021/08/27 06:09:23;;;;;;;0.68;0.10;;;15.10;83.40;;;;;;5047248;28;20037;-83
2021/08/27 06:11:51;;;;;;;2.97;0.20;;;15.10;83.30;;;;;;5018483;28;20045;-84
2021/08/27 06:14:18;;;;;;;0.95;0.10;;;15.10;83.30;;;;;;5016587;28;20063;-83
2021/08/27 06:16:45;;;;;;;1.75;0.10;;;15.10;83.30;;;;;;5050680;28;20037;-84
2021/08/27 06:19:12;;;;;;;0.75;0.08;;;15.20;83.30;;;;;;5024532;28;20040;-83
2021/08/27 06:21:39;;;;;;;0.63;0.15;;;15.20;83.30;;;;;;5012919;28;20041;-84
2021/08/27 06:24:07;;;;;;;1.60;0.20;;;15.30;83.20;;;;;;5007490;28;20045;-83
2021/08/27 06:26:34;;;;;;;0.95;0.17;;;15.30;83.30;;;;;;5001065;28;20040;-83
2021/08/27 06:29:03;;;;;;;0.73;0.20;;;15.30;83.20;;;;;;5014327;28;20056;-84
2021/08/27 06:31:38;;;;;;;2.15;0.32;;;15.40;83.20;;;;;;5010482;28;20052;-85
2021/08/27 06:34:05;;;;;;;1.33;0.20;;;15.40;83.10;;;;;;5032956;28;20135;-85
2021/08/27 06:36:32;;;;;;;0.50;0.17;;;15.40;83.10;;;;;;5037212;28;20131;-84
2021/08/27 06:38:59;;;;;;;1.77;0.15;;;15.50;83.10;;;;;;5015655;28;20040;-83
2021/08/27 06:41:26;;;;;;;0.63;0.20;;;15.50;83.00;;;;;;5021361;28;20048;-84
2021/08/27 06:43:53;;;;;;;0.73;0.20;;;15.70;83.00;;;;;;5040004;28;20059;-84
2021/08/27 06:46:23;;;;;;;0.50;0.17;;;15.70;82.90;;;;;;5028296;28;20049;-81
2021/08/27 06:48:51;;;;;;;3.20;0.22;;;15.80;82.70;;;;;;5020396;28;20037;-80
2021/08/27 06:51:18;;;;;;;0.77;0.13;;;15.90;82.60;;;;;;5008772;28;20405;-82
2021/08/27 06:53:45;;;;;;;1.23;0.20;;;15.90;82.40;;;;;;5012148;28;20464;-81
2021/08/27 06:56:12;;;;;;;1.35;0.10;;;16.00;82.30;;;;;;5020625;28;20045;-83
2021/08/27 06:58:39;;;;;;;2.15;0.20;;;16.10;82.20;;;;;;5031345;28;20053;-82
2021/08/27 07:01:06;;;;;;;0.52;0.10;;;16.10;82.20;;;;;;5006195;28;20049;-81
2021/08/27 07:03:34;;;;;;;1.00;0.20;;;16.10;82.20;;;;;;5000726;28;20045;-81
2021/08/27 07:06:01;;;;;;;0.85;0.20;;;16.20;82.10;;;;;;5042969;28;20046;-81
2021/08/27 07:08:28;;;;;;;2.13;0.20;;;16.20;82.00;;;;;;5018381;28;20555;-81
2021/08/27 07:10:55;;;;;;;3.72;0.50;;;16.30;81.90;;;;;;5019274;28;20493;-81
2021/08/27 07:13:22;;;;;;;0.40;0.10;;;16.30;81.80;;;;;;5001772;28;20494;-81
2021/08/27 07:15:50;;;;;;;1.55;0.30;;;16.40;81.70;;;;;;5020972;28;20546;-82
2021/08/27 07:18:17;;;;;;;1.25;0.10;;;16.50;81.70;;;;;;5005075;28;20052;-80
2021/08/27 07:20:44;;;;;;;1.88;0.30;;;16.50;81.50;;;;;;5038707;28;20082;-81
2021/08/27 07:23:13;;;;;;;1.50;0.10;;;16.60;81.40;;;;;;5021293;28;20063;-81
2021/08/27 07:25:42;;;;;;;1.52;0.20;;;16.60;81.40;;;;;;5022788;28;20107;-83
2021/08/27 07:28:09;;;;;;;1.75;0.20;;;16.70;81.90;;;;;;5037148;28;20095;-80
2021/08/27 07:30:36;;;;;;;1.20;0.22;;;16.80;81.20;;;;;;5027257;28;20037;-82
2021/08/27 07:33:03;;;;;;;1.10;0.15;;;16.90;80.90;;;;;;5008406;28;20125;-82
2021/08/27 07:35:30;;;;;;;1.30;0.25;;;17.20;80.60;;;;;;5009887;28;20045;-83
2021/08/27 07:37:57;;;;;;;1.38;0.10;;;17.30;80.10;;;;;;5010400;28;20500;-83
2021/08/27 07:40:25;;;;;;;0.63;0.22;;;17.50;80.00;;;;;;5041957;28;20053;-89
2021/08/27 07:42:52;;;;;;;2.08;0.20;;;17.60;79.70;;;;;;5037687;28;20515;-89
2021/08/27 07:45:20;;;;;;;1.08;0.30;;;17.60;79.50;;;;;;5022344;28;20055;-90
2021/08/27 07:47:47;;;;;;;1.75;0.40;;;17.60;79.20;;;;;;5049440;28;20045;-90
2021/08/27 07:50:16;;;;;;;3.08;0.30;;;17.60;79.30;;;;;;5042174;28;20131;-90
2021/08/27 07:52:43;;;;;;;1.30;0.20;;;17.60;79.00;;;;;;5026802;28;20046;-89
2021/08/27 07:55:10;;;;;;;3.25;0.20;;;17.70;79.10;;;;;;5005145;28;20493;-86
2021/08/27 07:57:42;;;;;;;2.35;0.43;;;17.80;79.10;;;;;;5032472;28;20132;-87
2021/08/27 08:00:11;;;;;;;3.40;0.20;;;17.80;79.10;;;;;;5003591;28;20052;-87
2021/08/27 08:02:38;;;;;;;1.73;0.40;;;17.70;79.00;;;;;;5034448;28;20037;-87
2021/08/27 08:05:06;;;;;;;1.60;0.55;;;17.70;78.90;;;;;;5026874;28;20409;-89
2021/08/27 08:07:33;;;;;;;2.50;0.40;;;17.60;79.00;;;;;;5009368;28;20447;-90
2021/08/27 08:10:00;;;;;;;1.65;0.35;;;17.60;79.20;;;;;;5021824;28;20041;-89
2021/08/27 08:12:27;;;;;;;1.67;0.25;;;17.60;79.30;;;;;;5020287;28;20493;-90
2021/08/27 08:14:55;;;;;;;1.02;0.22;;;17.60;79.30;;;;;;5004216;28;20035;-86
2021/08/27 08:17:22;;;;;;;2.20;0.28;;;17.60;79.20;;;;;;5020911;28;20070;-85
2021/08/27 08:19:49;;;;;;;3.47;0.30;;;17.60;79.20;;;;;;5036859;28;20088;-84
2021/08/27 08:22:19;;;;;;;1.98;0.30;;;17.60;79.20;;;;;;5004829;28;20127;-87
2021/08/27 08:24:46;;;;;;;1.83;0.38;;;17.70;79.10;;;;;;5045575;28;20091;-81
2021/08/27 08:27:13;;;;;;;1.88;0.30;;;17.90;79.10;;;;;;5028724;28;20091;-82
2021/08/27 08:29:40;;;;;;;1.70;0.32;;;17.90;78.80;;;;;;5046105;28;20048;-82
2021/08/27 08:32:08;;;;;;;1.23;0.20;;;17.90;78.60;;;;;;5014871;28;20392;-82
2021/08/27 08:34:35;;;;;;;3.35;0.30;;;17.80;78.80;;;;;;5023301;28;20460;-82
2021/08/27 08:37:07;;;;;;;0.50;0.20;;;17.80;78.80;;;;;;5025814;28;20131;-82
2021/08/27 08:39:37;;;;;;;;;;;17.80;78.50;;;;;;5030567;28;20120;-81
2021/08/27 08:42:05;;;;;;;0.88;0.20;;;17.90;78.60;;;;;;5051626;28;19956;-83
2021/08/27 08:44:33;;;;;;;2.20;0.55;;;17.90;78.50;;;;;;5003069;28;20135;-81
2021/08/27 08:47:03;;;;;;;2.53;0.43;;;18.10;78.30;;;;;;5026779;28;20045;-82
2021/08/27 08:49:33;;;;;;;1.90;0.30;;;18.20;77.70;;;;;;5036655;28;20056;-82
2021/08/27 08:52:01;;;;;;;3.63;0.47;;;18.20;77.60;;;;;;5018746;28;20401;-81
2021/08/27 08:54:29;;;;;;;4.72;0.50;;;18.40;77.40;;;;;;5022415;28;20799;-78
2021/08/27 08:57:06;;;;;;;1.88;0.55;;;18.60;77.00;;;;;;5022718;28;20047;-82
2021/08/27 08:59:37;;;;;;;1.80;0.50;;;18.80;76.50;;;;;;5036321;28;20327;-79
2021/08/27 09:02:23;;;;;;;3.03;0.40;;;18.90;76.40;;;;;;5016474;28;20037;-79
2021/08/27 09:04:50;;;;;;;2.80;0.30;;;19.00;76.00;;;;;;5008799;28;20512;-81
2021/08/27 09:07:18;;;;;;;1.25;0.20;;;19.10;75.90;;;;;;5010643;28;20119;-79
2021/08/27 09:09:45;;;;;;;0.75;0.25;;;19.00;75.70;;;;;;5037964;28;20041;-79
2021/08/27 09:12:30;;;;;;;2.55;0.50;;;18.90;75.90;;;;;;5011824;28;20540;-80
2021/08/27 09:15:10;;;;;;;2.20;0.30;;;18.90;75.80;;;;;;5002537;28;20079;-79
2021/08/27 09:17:40;;;;;;;1.73;0.30;;;19.00;75.50;;;;;;5037492;28;20206;-79
2021/08/27 09:20:09;;;;;;;2.88;0.40;;;19.00;75.50;;;;;;5034547;28;20048;-80
2021/08/27 09:22:49;;;;;;;1.88;0.50;;;19.10;75.50;;;;;;5018616;28;20045;-80
2021/08/27 09:25:27;;;;;;;1.67;0.32;;;19.20;75.20;;;;;;5034867;28;20112;-80
2021/08/27 09:28:07;;;;;;;4.10;0.40;;;19.30;74.80;;;;;;5018024;28;20037;-79
2021/08/27 09:30:54;;;;;;;2.53;0.75;;;19.40;74.00;;;;;;5024775;28;20037;-78
2021/08/27 09:33:27;;;;;;;5.93;0.60;;;19.40;73.60;;;;;;5026273;28;20107;-80
2021/08/27 09:36:00;;;;;;;;;;;19.30;73.50;;;;;;5019579;28;20103;-80
2021/08/27 09:38:34;;;;;;;1.30;0.20;;;19.30;73.70;;;;;;5037638;28;19921;-80
2021/08/27 09:41:07;;;;;;;3.10;0.40;;;19.20;74.00;;;;;;5044308;28;20040;-79
2021/08/27 09:44:01;;;;;;;2.92;0.43;;;19.20;74.30;;;;;;5011984;28;20098;-79
2021/08/27 09:46:28;;;;;;;2.40;0.50;;;19.20;74.40;;;;;;5030847;28;20107;-81
2021/08/27 09:48:55;;;;;;;2.50;0.38;;;19.20;74.30;;;;;;5038575;28;20041;-80
2021/08/27 09:51:42;;;;;;;2.28;0.30;;;19.10;74.50;;;;;;5020915;28;20124;-80
2021/08/27 09:54:21;;;;;;;3.55;0.40;;;19.10;74.60;;;;;;5036972;28;20037;-83
2021/08/27 09:56:52;;;;;;;2.20;0.55;;;19.20;74.60;;;;;;5020828;28;20037;-81
2021/08/27 09:59:40;;;;;;;4.45;0.55;;;19.30;74.40;;;;;;5042127;28;20121;-79
2021/08/27 10:02:10;;;;;;;0.90;0.30;;;19.50;73.60;;;;;;5029114;28;20551;-79
2021/08/27 10:04:57;;;;;;;2.53;0.38;;;19.60;73.70;;;;;;5042460;28;20053;-80
2021/08/27 10:07:37;;;;;;;1.60;0.50;;;19.80;73.40;;;;;;5028450;28;20052;-79
2021/08/27 10:10:06;;;;;;;5.50;0.80;;;19.90;72.90;;;;;;5029204;28;20040;-80
2021/08/27 10:12:36;;;;;;;1.80;0.43;;;20.00;72.30;;;;;;5033478;28;20041;-80
2021/08/27 10:15:05;;;;;;;2.78;0.38;;;20.00;72.00;;;;;;5020686;28;20075;-86
2021/08/27 10:17:35;;;;;;;2.25;0.43;;;20.00;71.80;;;;;;5016930;28;20089;-84
2021/08/27 10:20:05;;;;;;;3.60;0.40;;;19.60;72.60;;;;;;5017725;28;20069;-84
2021/08/27 10:22:40;;;;;;;2.75;0.47;;;18.60;75.10;;;;;;5046724;28;20136;-82
2021/08/27 10:25:15;;;;;;;1.88;0.40;;;17.90;77.60;;;;;;5030710;28;20123;-88
2021/08/27 10:28:30;;;;;;;1.10;0.20;;;17.40;79.30;;;;;;5037943;28;20096;-96
2021/08/27 10:30:59;;;;;;;1.92;0.30;;;17.10;80.20;;;;;;5010828;28;20101;-85
2021/08/27 10:33:42;;;;;;;2.83;0.40;;;16.90;81.00;;;;;;5044691;28;20049;-90
2021/08/27 10:36:10;;;;;;;;;;;16.90;81.50;;;;;;5017222;28;20072;-88
2021/08/27 10:38:48;;;;;;;1.10;0.22;;;16.70;81.70;;;;;;5045420;28;19920;-88
2021/08/27 10:41:27;;;;;;;1.63;0.38;;;16.60;82.40;;;;;;5024743;28;20592;-91
2021/08/27 10:44:13;;;;;;;2.08;0.30;;;16.60;82.40;;;;;;5045241;28;20053;-87
2021/08/27 10:47:08;;;;;;;2.45;0.30;;;16.80;82.50;;;;;;5031182;28;20473;-87
2021/08/27 10:49:47;;;;;;;2.95;0.30;;;17.00;82.40;;;;;;5038724;28;20496;-85
2021/08/27 10:52:33;;;;;;;2.05;0.50;;;17.30;82.20;;;;;;5030289;28;20060;-86
2021/08/27 10:55:02;;;;;;;2.10;0.30;;;17.50;81.90;;;;;;5025338;28;20432;-84
2021/08/27 10:57:41;;;;;;;3.42;0.75;;;17.60;81.80;;;;;;5034935;28;20053;-87
2021/08/27 11:00:09;;;;;;;3.13;0.63;;;17.70;81.90;;;;;;5010677;28;20098;-88
2021/08/27 11:02:53;;;;;;;1.90;0.40;;;17.70;81.90;;;;;;5015563;28;20447;-84
2021/08/27 11:05:47;;;;;;;3.85;0.40;;;17.80;81.70;;;;;;5025483;28;20049;-84
2021/08/27 11:08:17;;;;;;;2.97;0.50;;;17.90;81.80;;;;;;5031849;28;20058;-83
2021/08/27 11:11:18;;;;;;;3.78;0.40;;;17.90;81.70;;;;;;5018794;28;20041;-88
2021/08/27 11:13:45;;;;;;;2.05;0.30;;;17.90;81.70;;;;;;4985611;28;20037;-83
2021/08/27 11:16:21;;;;;;;3.03;0.52;;;17.90;82.00;;;;;;5021864;28;20594;-83
2021/08/27 11:18:50;;;;;;;1.27;0.30;;;17.90;81.80;;;;;;5027420;28;20037;-87
2021/08/27 11:21:34;;;;;;;2.55;0.30;;;18.10;81.70;;;;;;5017784;28;20068;-87
2021/08/27 11:24:17;;;;;;;2.28;0.40;;;18.30;81.40;;;;;;5028175;28;20094;-87
2021/08/27 11:26:58;;;;;;;2.95;0.20;;;18.40;80.90;;;;;;5029815;28;20072;-94
2021/08/27 11:29:40;;;;;;;2.40;0.38;;;19.30;79.60;;;;;;5021493;28;20071;-85
2021/08/27 11:32:16;;;;;;;2.45;0.40;;;20.00;77.40;;;;;;5042404;28;20086;-82
2021/08/27 11:34:52;;;;;;;1.77;0.43;;;20.80;75.60;;;;;;5021307;28;20056;-83
2021/08/27 11:37:31;;;;;;;1.15;0.30;;;20.50;74.90;;;;;;5048619;28;20048;-85
2021/08/27 11:39:59;;;;;;;2.03;0.28;;;20.20;76.20;;;;;;5032790;28;20048;-86
2021/08/27 11:42:26;;;;;;;1.88;0.30;;;20.30;76.60;;;;;;5020052;28;20045;-83
2021/08/27 11:45:09;;;;;;;0.93;0.40;;;21.10;75.20;;;;;;5043950;28;20045;-84
2021/08/27 11:47:49;;;;;;;2.28;0.40;;;21.50;73.30;;;;;;5016779;28;20121;-83
2021/08/27 11:50:47;;;;;;;2.63;0.47;;;21.30;72.90;;;;;;5035270;28;20043;-84
2021/08/27 11:53:17;;;;;;;2.60;0.38;;;21.70;72.30;;;;;;5019866;28;20683;-85
2021/08/27 11:55:46;;;;;;;2.28;0.40;;;22.20;72.00;;;;;;5022793;28;20095;-86
2021/08/27 11:58:16;;;;;;;4.35;0.50;;;22.20;70.40;;;;;;5035649;28;20487;-83
2021/08/27 12:00:45;;;;;;;2.90;0.60;;;21.50;71.10;;;;;;5026972;28;20542;-81
2021/08/27 12:03:15;;;;;;;2.47;0.40;;;21.00;72.60;;;;;;5036284;28;20086;-87
2021/08/27 12:05:43;;;;;;;2.65;0.30;;;20.70;73.00;;;;;;5008728;28;20140;-82
2021/08/27 12:08:13;;;;;;;3.33;0.50;;;20.90;73.00;;;;;;5050620;28;20026;-82
2021/08/27 12:10:45;;;;;;;1.88;0.32;;;21.70;72.10;;;;;;5027399;28;20381;-82
2021/08/27 12:13:14;;;;;;;2.50;0.38;;;21.70;71.40;;;;;;5017602;28;20469;-82
2021/08/27 12:15:44;;;;;;;2.67;0.35;;;21.40;71.70;;;;;;5018308;28;20084;-85
2021/08/27 12:18:35;;;;;;;4.28;0.60;;;21.20;71.90;;;;;;5019726;28;20132;-89
2021/08/27 12:21:02;;;;;;;3.38;0.73;;;20.90;72.30;;;;;;5031228;28;20041;-83
2021/08/27 12:23:29;;;;;;;3.45;0.40;;;20.70;72.30;;;;;;5030883;28;20136;-85
2021/08/27 12:26:06;;;;;;;2.75;0.50;;;20.50;72.70;;;;;;5021131;28;20135;-82
2021/08/27 12:28:35;;;;;;;7.95;1.20;;;20.50;72.20;;;;;;5025611;28;20049;-80
2021/08/27 12:31:03;;;;;;;4.45;0.40;;;20.50;71.40;;;;;;5021987;28;20068;-80
2021/08/27 12:33:38;;;;;;;2.95;0.47;;;20.40;71.80;;;;;;5034887;28;20037;-81
2021/08/27 12:36:07;;;;;;;3.92;0.57;;;20.50;71.90;;;;;;5002926;28;20037;-80
2021/08/27 12:38:41;;;;;;;5.45;0.80;;;20.60;71.70;;;;;;5020576;28;20051;-80
2021/08/27 12:41:12;;;;;;;3.20;0.40;;;20.70;71.60;;;;;;5013809;28;20053;-84
2021/08/27 12:43:39;;;;;;;2.00;0.57;;;20.60;71.90;;;;;;5046414;28;20110;-79
2021/08/27 12:46:06;;;;;;;1.58;0.40;;;20.50;72.20;;;;;;5015438;28;20123;-78
2021/08/27 12:48:34;;;;;;;2.05;0.30;;;20.30;72.30;;;;;;5020800;28;20057;-82
2021/08/27 12:51:11;;;;;;;2.63;0.45;;;20.20;72.70;;;;;;5036297;28;20116;-80
2021/08/27 12:53:40;;;;;;;2.28;0.50;;;20.20;72.70;;;;;;5024109;28;20045;-82
2021/08/27 12:56:10;;;;;;;2.28;0.50;;;20.20;72.60;;;;;;5022494;28;20107;-80
2021/08/27 12:58:43;;;;;;;2.58;0.40;;;20.30;72.50;;;;;;5021203;28;20049;-85
2021/08/27 13:01:18;;;;;;;;;;;20.40;71.80;;;;;;5031086;28;20091;-82
2021/08/27 13:03:54;;;;;;;4.97;0.73;;;20.40;72.00;;;;;;5035363;28;20376;-81
2021/08/27 13:06:31;;;;;;;2.88;0.60;;;20.40;71.40;;;;;;5036058;28;20115;-82
2021/08/27 13:08:59;;;;;;;1.58;0.40;;;20.50;71.00;;;;;;5035006;28;20083;-81